Time;durP1;ratioP1;P1;durP2;ratioP2;P2;SDS_P1;SDS_P2;PMS_P1;PMS_P2;Temp;Humidity;BMP_temperature;BMP_pressure;BME280_temperature;BME280_humidity;BME280_pressure;Samples;Min_cycle;Max_cycle;Signal;HPM_P1;HPM_P2
2024/02/21 00:01:06;;;;;;;41.50;14.20;;;;;;;8.57;100.00;98845.97;4999438;28;20076;-59
2024/02/21 00:03:31;;;;;;;61.58;15.13;;;;;;;8.27;100.00;98841.94;4999921;28;20105;-59
2024/02/21 00:05:56;;;;;;;51.55;16.88;;;;;;;8.73;100.00;98845.41;4999973;28;20464;-60
2024/02/21 00:08:22;;;;;;;50.47;16.48;;;;;;;8.50;100.00;98849.28;4999451;28;20025;-61
2024/02/21 00:10:47;;;;;;;75.25;14.27;;;;;;;8.39;100.00;98842.16;4998585;28;20394;-59
2024/02/21 00:13:12;;;;;;;52.67;14.93;;;;;;;8.50;100.00;98834.59;5000813;28;20165;-62
2024/02/21 00:15:38;;;;;;;63.28;14.57;;;;;;;8.30;100.00;98832.50;4998024;28;20045;-59
2024/02/21 00:18:03;;;;;;;61.75;15.05;;;;;;;8.47;100.00;98835.41;4999704;28;20022;-61
2024/02/21 00:20:29;;;;;;;38.88;12.18;;;;;;;8.45;100.00;98837.13;4998234;28;20069;-62
2024/02/21 00:22:54;;;;;;;83.63;59.72;;;;;;;8.40;100.00;98832.69;5000212;28;20145;-60
2024/02/21 00:25:20;;;;;;;64.72;16.20;;;;;;;8.13;100.00;98826.97;4998467;28;20030;-63
2024/02/21 00:27:45;;;;;;;50.83;21.58;;;;;;;8.05;100.00;98823.34;5000267;28;20052;-60
2024/02/21 00:30:11;;;;;;;45.45;11.70;;;;;;;8.12;100.00;98826.97;4998506;28;20572;-60
2024/02/21 00:32:36;;;;;;;67.40;19.30;;;;;;;8.53;100.00;98820.84;4999147;28;20069;-64
2024/02/21 00:35:02;;;;;;;69.18;14.05;;;;;;;8.55;100.00;98816.56;4999980;28;20025;-60
2024/02/21 00:37:27;;;;;;;43.33;23.33;;;;;;;8.19;100.00;98814.16;4999195;28;20220;-60
2024/02/21 00:39:54;;;;;;;58.70;22.60;;;;;;;8.00;100.00;98810.31;4998328;28;20088;-60
2024/02/21 00:42:19;;;;;;;42.75;9.95;;;;;;;8.06;100.00;98807.00;5000400;28;20042;-60
2024/02/21 00:44:45;;;;;;;51.83;13.25;;;;;;;7.91;100.00;98803.22;4998631;28;20032;-61
2024/02/21 00:47:10;;;;;;;46.97;12.23;;;;;;;8.12;100.00;98806.25;4999175;28;20300;-63
2024/02/21 00:49:35;;;;;;;85.47;54.63;;;;;;;7.92;100.00;98802.41;4998257;28;20060;-60
2024/02/21 00:52:01;;;;;;;42.42;13.88;;;;;;;8.20;100.00;98802.94;4999401;28;20061;-64
2024/02/21 00:54:26;;;;;;;55.25;11.63;;;;;;;8.07;100.00;98795.78;4999730;28;20472;-60
2024/02/21 00:56:51;;;;;;;50.55;10.82;;;;;;;8.03;100.00;98791.38;4998239;28;20368;-61
2024/02/21 00:59:17;;;;;;;42.03;12.85;;;;;;;8.18;100.00;98790.81;5000544;28;20109;-60
2024/02/21 01:01:42;;;;;;;65.25;15.25;;;;;;;8.18;100.00;98788.22;4997175;28;20045;-62
2024/02/21 01:04:09;;;;;;;57.30;15.95;;;;;;;8.05;100.00;98789.69;4994955;28;20032;-61
2024/02/21 01:06:34;;;;;;;77.05;48.00;;;;;;;8.18;100.00;98786.50;4994164;28;20110;-60
2024/02/21 01:08:59;;;;;;;61.70;18.65;;;;;;;8.22;100.00;98779.66;4995702;28;20265;-58
2024/02/21 01:11:25;;;;;;;49.42;21.83;;;;;;;8.11;100.00;98786.34;4994439;28;20497;-63
2024/02/21 01:13:50;;;;;;;84.60;17.95;;;;;;;8.17;100.00;98779.56;4994583;28;20095;-60
2024/02/21 01:16:15;;;;;;;57.50;17.90;;;;;;;7.97;100.00;98778.31;4993667;28;20030;-62
2024/02/21 01:18:41;;;;;;;63.85;15.05;;;;;;;7.98;100.00;98777.47;4997522;28;20185;-58
2024/02/21 01:21:07;;;;;;;66.70;14.30;;;;;;;7.79;100.00;98769.31;4993063;28;20291;-61
2024/02/21 01:23:34;;;;;;;54.25;15.93;;;;;;;8.08;100.00;98763.84;4996368;28;20028;-62
2024/02/21 01:26:00;;;;;;;54.72;14.85;;;;;;;7.92;100.00;98768.75;4994080;28;20041;-58
2024/02/21 01:28:25;;;;;;;65.97;14.85;;;;;;;7.89;100.00;98766.06;4995096;28;20431;-59
2024/02/21 01:30:51;;;;;;;56.80;14.85;;;;;;;7.79;100.00;98761.53;4993829;28;20038;-59
2024/02/21 01:33:16;;;;;;;55.25;12.88;;;;;;;7.77;100.00;98764.13;4995990;28;20041;-62
2024/02/21 01:35:42;;;;;;;84.07;18.77;;;;;;;7.73;100.00;98759.72;4994080;28;20058;-60
2024/02/21 01:38:07;;;;;;;58.65;17.58;;;;;;;7.93;100.00;98765.28;4993722;28;20220;-59
2024/02/21 01:40:32;;;;;;;59.00;30.08;;;;;;;7.82;100.00;98753.84;4993644;28;20057;-59
2024/02/21 01:42:58;;;;;;;66.90;17.98;;;;;;;7.62;100.00;98754.31;4994386;28;20029;-58
2024/02/21 01:45:23;;;;;;;60.65;22.20;;;;;;;8.03;100.00;98747.34;4995280;28;20053;-61
2024/02/21 01:47:49;;;;;;;74.43;22.10;;;;;;;8.02;100.00;98743.84;4993844;28;20115;-61
2024/02/21 01:50:16;;;;;;;74.57;18.73;;;;;;;7.94;100.00;98741.13;4993236;28;20133;-59
2024/02/21 01:52:43;;;;;;;58.83;17.92;;;;;;;8.20;100.00;98745.94;4993949;28;20172;-61
2024/02/21 01:55:10;;;;;;;73.65;27.27;;;;;;;7.92;100.00;98737.66;4994103;28;20080;-60
2024/02/21 01:57:36;;;;;;;63.42;14.90;;;;;;;7.88;100.00;98732.38;4992384;28;20213;-59
2024/02/21 02:00:02;;;;;;;57.33;19.85;;;;;;;8.13;100.00;98733.69;4992784;28;20536;-60
2024/02/21 02:02:28;;;;;;;51.05;13.90;;;;;;;8.13;100.00;98725.06;4994428;28;20243;-61
2024/02/21 02:04:54;;;;;;;82.63;21.75;;;;;;;8.30;100.00;98718.47;4992925;28;20829;-60
2024/02/21 02:07:19;;;;;;;55.83;15.07;;;;;;;7.91;100.00;98720.34;4993864;28;20072;-60
2024/02/21 02:09:45;;;;;;;94.13;16.98;;;;;;;8.03;100.00;98724.03;4993070;28;20159;-59
2024/02/21 02:12:10;;;;;;;59.67;15.23;;;;;;;8.12;100.00;98726.78;4997607;28;20494;-60
2024/02/21 02:14:35;;;;;;;52.25;14.93;;;;;;;8.21;100.00;98721.75;4997653;28;20242;-61
2024/02/21 02:17:01;;;;;;;58.47;14.65;;;;;;;8.05;100.00;98722.31;4996484;28;20038;-59
2024/02/21 02:19:26;;;;;;;56.70;13.00;;;;;;;7.89;100.00;98715.97;4998272;28;20042;-60
2024/02/21 02:21:56;;;;;;;64.68;14.18;;;;;;;7.89;100.00;98726.34;4996015;28;20034;-62
2024/02/21 02:24:24;;;;;;;57.40;16.77;;;;;;;7.98;100.00;98718.75;4997669;28;20541;-62
2024/02/21 02:26:49;;;;;;;52.78;12.38;;;;;;;7.90;100.00;98723.78;4996296;28;20252;-63
2024/02/21 02:29:15;;;;;;;54.08;14.10;;;;;;;8.26;100.00;98715.78;4998163;28;20037;-59
2024/02/21 02:31:40;;;;;;;77.68;14.57;;;;;;;8.19;100.00;98719.97;4996021;28;20033;-64
2024/02/21 02:34:05;;;;;;;55.92;15.63;;;;;;;7.99;100.00;98711.84;4997613;28;20132;-59
2024/02/21 02:36:34;;;;;;;54.35;15.05;;;;;;;7.98;100.00;98707.53;4996880;28;20033;-61
2024/02/21 02:38:59;;;;;;;82.45;17.20;;;;;;;8.06;100.00;98708.53;4997906;28;20026;-59
2024/02/21 02:41:25;;;;;;;64.00;17.10;;;;;;;8.17;100.00;98703.56;4997270;28;20049;-62
2024/02/21 02:43:50;;;;;;;67.18;15.93;;;;;;;8.40;100.00;98693.59;4997301;28;20089;-61
2024/02/21 02:46:15;;;;;;;76.90;17.10;;;;;;;8.37;100.00;98692.63;4994677;28;20084;-60
2024/02/21 02:48:41;;;;;;;71.07;15.90;;;;;;;8.05;100.00;98691.22;4997322;28;20132;-63
2024/02/21 02:51:06;;;;;;;51.95;14.93;;;;;;;8.06;100.00;98686.06;4996021;28;20506;-62
2024/02/21 02:53:32;;;;;;;60.22;15.52;;;;;;;8.02;100.00;98673.06;4998020;28;20251;-61
2024/02/21 02:55:57;;;;;;;51.80;14.02;;;;;;;8.17;100.00;98675.91;4996180;28;20431;-61
2024/02/21 02:58:23;;;;;;;55.80;13.20;;;;;;;7.78;100.00;98676.91;4997276;28;20442;-60
2024/02/21 03:00:48;;;;;;;81.72;14.23;;;;;;;7.73;100.00;98673.38;4994603;28;20040;-58
2024/02/21 03:03:13;;;;;;;57.70;13.63;;;;;;;7.94;100.00;98667.72;4997528;28;20026;-59
2024/02/21 03:05:39;;;;;;;55.42;14.48;;;;;;;7.67;100.00;98664.66;4995812;28;20061;-61
2024/02/21 03:08:06;;;;;;;71.43;16.42;;;;;;;7.64;100.00;98659.41;4996936;28;20022;-61
2024/02/21 03:10:32;;;;;;;54.80;13.90;;;;;;;7.93;100.00;98661.69;4996295;28;20034;-61
2024/02/21 03:12:58;;;;;;;54.60;13.05;;;;;;;7.97;100.00;98659.16;4996280;28;20083;-59
2024/02/21 03:15:24;;;;;;;60.38;27.13;;;;;;;7.89;100.00;98665.06;4996165;28;20046;-60
2024/02/21 03:17:49;;;;;;;65.40;13.35;;;;;;;7.81;100.00;98656.28;4997082;28;20026;-60
2024/02/21 03:20:15;;;;;;;66.03;16.00;;;;;;;8.18;100.00;98667.31;4994988;28;20056;-60
2024/02/21 03:22:41;;;;;;;56.67;14.73;;;;;;;7.81;100.00;98667.50;4995874;28;20029;-63
2024/02/21 03:25:07;;;;;;;64.90;14.13;;;;;;;7.80;100.00;98662.31;4995478;28;20030;-61
2024/02/21 03:27:32;;;;;;;57.95;14.27;;;;;;;7.84;100.00;98664.09;4995677;28;20021;-59
2024/02/21 03:29:57;;;;;;;57.03;13.45;;;;;;;7.80;100.00;98662.31;4994637;28;20029;-60
2024/02/21 03:32:23;;;;;;;55.05;12.38;;;;;;;7.71;100.00;98660.41;4996028;28;20033;-59
2024/02/21 03:34:48;;;;;;;83.55;15.20;;;;;;;7.79;100.00;98655.34;4995572;28;20026;-59
2024/02/21 03:37:13;;;;;;;53.30;13.07;;;;;;;7.54;100.00;98645.41;4995737;28;20265;-58
2024/02/21 03:39:39;;;;;;;79.22;17.35;;;;;;;7.72;100.00;98650.94;4996420;28;20022;-58
2024/02/21 03:42:05;;;;;;;67.13;15.73;;;;;;;7.61;100.00;98650.72;4995582;28;20476;-59
2024/02/21 03:44:31;;;;;;;45.40;13.20;;;;;;;7.52;100.00;98651.41;4996430;28;20033;-60
2024/02/21 03:46:57;;;;;;;72.78;16.05;;;;;;;7.43;100.00;98645.19;4994134;28;20038;-61
2024/02/21 03:49:22;;;;;;;57.97;16.38;;;;;;;7.29;100.00;98657.00;4995576;28;20041;-59
2024/02/21 03:51:48;;;;;;;59.40;17.10;;;;;;;7.40;100.00;98645.16;4993414;28;20752;-61
2024/02/21 03:54:13;;;;;;;60.35;14.30;;;;;;;7.50;100.00;98645.34;4996582;28;20025;-58
2024/02/21 03:56:41;;;;;;;70.07;24.35;;;;;;;7.38;100.00;98641.66;4994648;28;20369;-61
2024/02/21 03:59:07;;;;;;;60.85;18.77;;;;;;;7.39;100.00;98645.97;4996017;28;20061;-60
2024/02/21 04:01:34;;;;;;;58.78;18.35;;;;;;;7.75;100.00;98640.59;4994886;28;20041;-60
2024/02/21 04:03:59;;;;;;;87.25;17.48;;;;;;;7.46;100.00;98634.03;4995341;28;20025;-59
2024/02/21 04:06:25;;;;;;;55.03;17.55;;;;;;;7.44;100.00;98635.72;4995333;28;20096;-61
2024/02/21 04:08:50;;;;;;;69.25;18.30;;;;;;;7.51;100.00;98631.53;4994564;28;20326;-61
2024/02/21 04:11:15;;;;;;;71.90;25.05;;;;;;;7.41;100.00;98628.78;4994042;28;20550;-59
2024/02/21 04:13:40;;;;;;;82.50;61.78;;;;;;;7.37;100.00;98624.38;4995915;28;20041;-61
2024/02/21 04:16:06;;;;;;;46.80;16.80;;;;;;;7.43;100.00;98623.63;4994315;28;20717;-60
2024/02/21 04:18:31;;;;;;;62.90;19.55;;;;;;;7.24;100.00;98638.78;4995135;28;20701;-61
2024/02/21 04:20:56;;;;;;;75.07;21.85;;;;;;;7.29;100.00;98616.47;4993583;28;20042;-59
2024/02/21 04:23:22;;;;;;;74.10;42.05;;;;;;;7.36;100.00;98614.88;4995866;28;20030;-60
2024/02/21 04:25:47;;;;;;;88.40;21.38;;;;;;;7.13;100.00;98617.84;4993435;28;20632;-59
2024/02/21 04:28:12;;;;;;;61.75;21.10;;;;;;;7.18;100.00;98611.91;4995636;28;20546;-63
2024/02/21 04:30:38;;;;;;;71.57;23.60;;;;;;;7.10;100.00;98615.22;4995272;28;20087;-59
2024/02/21 04:33:03;;;;;;;72.53;35.20;;;;;;;7.02;100.00;98607.28;4994240;28;20025;-63
2024/02/21 04:35:28;;;;;;;53.58;24.67;;;;;;;7.18;100.00;98612.78;4994522;28;20238;-62
2024/02/21 04:37:54;;;;;;;79.97;22.23;;;;;;;7.23;100.00;98610.28;4994395;28;20022;-60
2024/02/21 04:40:20;;;;;;;80.63;38.22;;;;;;;7.31;100.00;98603.53;4994754;28;20018;-59
2024/02/21 04:42:45;;;;;;;75.22;22.83;;;;;;;7.31;100.00;98605.28;4995035;28;20026;-58
2024/02/21 04:45:10;;;;;;;86.90;24.10;;;;;;;7.33;100.00;98604.47;4993734;28;20030;-62
2024/02/21 04:47:36;;;;;;;65.30;25.42;;;;;;;7.24;100.00;98597.38;4994011;28;20112;-64
2024/02/21 04:50:01;;;;;;;65.15;23.00;;;;;;;7.42;100.00;98606.34;4993797;28;20112;-61
2024/02/21 04:52:27;;;;;;;73.57;23.70;;;;;;;7.18;100.00;98596.38;4994294;28;20038;-60
2024/02/21 04:54:52;;;;;;;90.18;23.42;;;;;;;7.14;100.00;98590.28;4995102;28;20022;-63
2024/02/21 04:57:17;;;;;;;78.28;24.98;;;;;;;7.11;100.00;98604.03;4994764;28;20065;-60
2024/02/21 04:59:49;;;;;;;94.10;24.63;;;;;;;7.02;100.00;98601.25;4993019;28;20036;-61
2024/02/21 05:02:14;;;;;;;75.37;23.73;;;;;;;6.95;100.00;98601.97;4993941;28;20046;-60
2024/02/21 05:04:41;;;;;;;66.72;23.58;;;;;;;6.85;100.00;98598.31;4995239;28;20295;-59
2024/02/21 05:07:07;;;;;;;83.72;23.20;;;;;;;6.96;100.00;98595.94;4992319;28;20128;-60
2024/02/21 05:09:32;;;;;;;85.93;25.35;;;;;;;6.89;100.00;98589.78;4995136;28;20433;-63
2024/02/21 05:12:00;;;;;;;86.53;25.95;;;;;;;6.89;100.00;98585.47;4992924;28;20030;-63
2024/02/21 05:14:29;;;;;;;84.90;26.17;;;;;;;6.87;100.00;98583.72;4994455;28;20025;-60
2024/02/21 05:16:54;;;;;;;91.38;28.30;;;;;;;6.85;100.00;98581.09;4992612;28;20585;-62
2024/02/21 05:19:20;;;;;;;73.97;34.90;;;;;;;6.70;100.00;98568.69;4995578;28;20263;-61
2024/02/21 05:21:45;;;;;;;90.93;34.88;;;;;;;6.63;100.00;98567.69;4991999;28;20042;-59
2024/02/21 05:24:11;;;;;;;98.93;80.70;;;;;;;6.58;100.00;98568.44;4994385;28;20789;-60
2024/02/21 05:26:36;;;;;;;75.88;34.70;;;;;;;6.49;100.00;98558.75;4994572;28;20204;-58
2024/02/21 05:29:02;;;;;;;116.32;36.83;;;;;;;6.58;100.00;98563.25;4993973;28;20724;-61
2024/02/21 05:31:54;;;;;;;97.90;83.60;;;;;;;6.51;100.00;98555.38;4993284;28;20553;-60
2024/02/21 05:34:20;;;;;;;88.30;67.85;;;;;;;6.49;100.00;98558.75;4993718;28;20084;-62
2024/02/21 05:36:45;;;;;;;71.90;29.10;;;;;;;6.45;100.00;98564.69;4992787;28;20038;-60
2024/02/21 05:39:11;;;;;;;90.60;35.65;;;;;;;6.40;100.00;98563.72;4994411;28;20029;-60
2024/02/21 05:41:36;;;;;;;130.02;106.30;;;;;;;6.28;100.00;98562.63;4992928;28;20095;-62
2024/02/21 05:44:02;;;;;;;84.30;37.60;;;;;;;6.30;100.00;98565.22;4993134;28;20567;-58
2024/02/21 05:46:28;;;;;;;95.45;43.42;;;;;;;6.29;100.00;98560.88;4993974;28;20083;-62
2024/02/21 05:48:53;;;;;;;96.43;35.38;;;;;;;6.25;100.00;98559.94;4993030;28;20026;-62
2024/02/21 05:51:18;;;;;;;80.60;38.95;;;;;;;6.20;100.00;98564.16;4993572;28;20060;-61
2024/02/21 05:53:43;;;;;;;87.85;28.85;;;;;;;6.29;100.00;98561.78;4993774;28;20129;-61
2024/02/21 05:56:12;;;;;;;68.05;27.48;;;;;;;6.20;100.00;98559.84;4992480;28;20057;-63
2024/02/21 05:58:38;;;;;;;59.55;24.98;;;;;;;6.21;100.00;98553.84;4994468;28;20152;-61
2024/02/21 06:01:04;;;;;;;105.45;35.05;;;;;;;6.12;100.00;98546.75;4992399;28;20481;-62
2024/02/21 06:03:30;;;;;;;67.22;28.45;;;;;;;6.19;100.00;98544.28;4994940;28;20029;-60
2024/02/21 06:05:55;;;;;;;92.22;26.13;;;;;;;6.16;100.00;98546.81;4992838;28;20349;-63
2024/02/21 06:08:21;;;;;;;88.50;25.98;;;;;;;6.04;100.00;98535.34;4993318;28;20026;-59
2024/02/21 06:10:48;;;;;;;65.53;24.80;;;;;;;5.99;100.00;98536.94;4991752;28;20054;-59
2024/02/21 06:13:13;;;;;;;64.45;26.70;;;;;;;5.99;100.00;98532.63;4994255;28;20277;-60
2024/02/21 06:15:39;;;;;;;83.35;28.23;;;;;;;5.99;100.00;98544.69;4993042;28;20116;-60
2024/02/21 06:18:04;;;;;;;90.63;26.67;;;;;;;5.91;100.00;98551.38;4992544;28;20018;-59
2024/02/21 06:20:29;;;;;;;61.38;25.13;;;;;;;5.81;100.00;98556.31;4991021;28;20038;-64
2024/02/21 06:22:55;;;;;;;96.60;37.00;;;;;;;5.83;100.00;98557.19;4992771;28;20478;-58
2024/02/21 06:25:20;;;;;;;85.03;39.20;;;;;;;5.83;100.00;98551.19;4992729;28;20030;-57
2024/02/21 06:27:45;;;;;;;86.25;39.05;;;;;;;5.82;100.00;98552.00;4994167;28;20334;-57
2024/02/21 06:30:11;;;;;;;94.55;45.72;;;;;;;5.69;100.00;98554.31;4991221;28;20253;-57
2024/02/21 06:32:36;;;;;;;87.75;63.65;;;;;;;5.62;100.00;98556.66;4993928;28;20032;-60
2024/02/21 06:35:02;;;;;;;123.85;57.47;;;;;;;5.59;100.00;98558.34;4992142;28;20030;-58
2024/02/21 06:37:27;;;;;;;85.50;41.33;;;;;;;5.62;100.00;98562.72;4993003;28;20666;-57
2024/02/21 06:39:52;;;;;;;93.05;40.85;;;;;;;5.62;100.00;98564.41;4991519;28;20212;-58
2024/02/21 06:42:18;;;;;;;88.03;39.42;;;;;;;5.78;100.00;98576.00;4991790;28;20057;-59
2024/02/21 06:44:44;;;;;;;87.80;39.25;;;;;;;5.86;100.00;98575.38;4992920;28;20108;-60
2024/02/21 06:47:10;;;;;;;83.50;40.15;;;;;;;5.99;100.00;98575.66;4990270;28;20041;-59
2024/02/21 06:49:37;;;;;;;105.55;41.00;;;;;;;6.11;100.00;98570.84;4992792;28;20026;-60
2024/02/21 06:52:04;;;;;;;89.68;38.78;;;;;;;6.05;100.00;98575.84;4992093;28;20037;-58
2024/02/21 06:54:30;;;;;;;80.75;44.10;;;;;;;6.31;100.00;98579.91;4994662;28;20030;-59
2024/02/21 06:56:55;;;;;;;125.13;52.15;;;;;;;6.35;100.00;98577.41;4994073;28;20468;-62
2024/02/21 06:59:20;;;;;;;96.88;56.10;;;;;;;6.23;100.00;98575.41;4997287;28;20029;-58
2024/02/21 07:01:49;;;;;;;121.45;100.15;;;;;;;6.45;100.00;98578.50;4995407;28;20080;-58
2024/02/21 07:04:15;;;;;;;110.15;49.50;;;;;;;6.80;100.00;98579.22;4995872;28;20026;-60
2024/02/21 07:06:41;;;;;;;85.55;41.10;;;;;;;6.92;100.00;98583.78;4995749;28;20042;-59
2024/02/21 07:09:06;;;;;;;117.53;70.97;;;;;;;6.94;100.00;98580.38;4994596;28;20021;-59
2024/02/21 07:11:31;;;;;;;122.55;78.28;;;;;;;7.13;100.00;98567.84;4995202;28;20584;-57
2024/02/21 07:13:57;;;;;;;91.72;36.92;;;;;;;7.15;100.00;98566.16;4995343;28;20029;-59
2024/02/21 07:16:22;;;;;;;72.57;39.50;;;;;;;7.38;100.00;98557.94;4995873;28;20048;-60
2024/02/21 07:18:47;;;;;;;94.47;45.20;;;;;;;7.83;100.00;98550.97;4995472;28;20260;-60
2024/02/21 07:21:13;;;;;;;100.65;63.55;;;;;;;8.05;100.00;98548.72;4994332;28;20147;-59
2024/02/21 07:23:42;;;;;;;70.60;44.00;;;;;;;8.06;100.00;98550.50;4994990;28;20025;-59
2024/02/21 07:26:07;;;;;;;107.30;43.90;;;;;;;7.91;100.00;98548.53;4993966;28;20072;-59
2024/02/21 07:28:33;;;;;;;95.38;82.85;;;;;;;7.83;100.00;98556.16;4995778;28;20030;-59
2024/02/21 07:30:59;;;;;;;94.40;39.45;;;;;;;8.42;100.00;98554.47;4991695;28;20122;-59
2024/02/21 07:33:25;;;;;;;57.05;22.67;;;;;;;8.39;100.00;98556.16;4995644;28;20623;-58
2024/02/21 07:35:50;;;;;;;77.03;38.03;;;;;;;10.06;100.00;98568.44;4995290;28;20047;-59
2024/02/21 07:38:18;;;;;;;109.53;66.63;;;;;;;13.00;100.00;98570.84;4994305;28;20316;-58
2024/02/21 07:40:44;;;;;;;132.77;118.35;;;;;;;11.95;100.00;98570.13;4994209;28;20030;-57
2024/02/21 07:43:10;;;;;;;85.22;51.15;;;;;;;10.93;100.00;98574.22;4994520;28;20243;-60
2024/02/21 07:45:35;;;;;;;63.85;24.48;;;;;;;12.43;100.00;98564.06;4995064;28;20037;-58
2024/02/21 07:48:01;;;;;;;76.47;23.50;;;;;;;12.39;100.00;98549.28;4994183;28;20026;-59
2024/02/21 07:50:26;;;;;;;54.13;16.05;;;;;;;13.80;100.00;98529.47;4994422;28;20300;-59
2024/02/21 07:52:52;;;;;;;85.72;42.80;;;;;;;17.13;100.00;98504.63;4994093;28;20347;-57
2024/02/21 07:55:17;;;;;;;76.90;47.78;;;;;;;17.36;100.00;98501.50;4994023;28;20072;-61
2024/02/21 07:57:42;;;;;;;35.80;11.00;;;;;;;17.05;100.00;98492.53;4994701;28;20065;-59
2024/02/21 08:00:10;;;;;;;80.93;17.73;;;;;;;17.27;100.00;98480.69;4991907;28;20477;-58
2024/02/21 08:02:35;;;;;;;53.67;23.42;;;;;;;17.55;100.00;98480.03;4994507;28;20493;-61
2024/02/21 08:05:01;;;;;;;90.35;37.90;;;;;;;18.79;100.00;98486.50;4993238;28;20025;-61
2024/02/21 08:07:28;;;;;;;53.95;13.63;;;;;;;16.70;100.00;98486.22;4994668;28;20050;-61
2024/02/21 08:09:54;;;;;;;47.50;12.60;;;;;;;17.30;100.00;98483.25;4993621;28;20037;-62
2024/02/21 08:12:19;;;;;;;41.38;16.10;;;;;;;16.63;100.00;98482.00;4994755;28;20030;-61
2024/02/21 08:14:44;;;;;;;59.95;11.88;;;;;;;17.31;100.00;98469.19;4994334;28;20289;-63
2024/02/21 08:17:10;;;;;;;99.90;87.82;;;;;;;16.06;99.87;98462.94;4993190;28;20069;-62
2024/02/21 08:19:36;;;;;;;62.42;13.30;;;;;;;15.24;100.00;98471.22;4994832;28;20029;-62
2024/02/21 08:22:01;;;;;;;108.97;74.28;;;;;;;13.13;100.00;98468.06;4993791;28;20340;-59
2024/02/21 08:24:26;;;;;;;52.72;11.60;;;;;;;12.95;100.00;98463.81;4995484;28;20120;-61
2024/02/21 08:26:52;;;;;;;48.50;9.95;;;;;;;13.07;100.00;98457.63;4994617;28;20131;-60
2024/02/21 08:29:17;;;;;;;59.63;11.98;;;;;;;12.45;100.00;98451.00;4992861;28;20316;-61
2024/02/21 08:31:42;;;;;;;44.47;8.68;;;;;;;11.84;100.00;98445.03;4992815;28;20414;-60
2024/02/21 08:34:08;;;;;;;57.40;14.57;;;;;;;12.01;100.00;98439.78;4993070;28;20132;-59
2024/02/21 08:36:34;;;;;;;46.25;11.32;;;;;;;11.79;100.00;98438.94;4993536;28;20056;-60
2024/02/21 08:39:03;;;;;;;62.58;12.63;;;;;;;11.68;100.00;98446.75;4994685;28;20025;-59
2024/02/21 08:41:30;;;;;;;45.28;15.02;;;;;;;11.83;100.00;98443.28;4994238;28;20030;-59
2024/02/21 08:43:56;;;;;;;59.85;16.25;;;;;;;12.12;100.00;98452.81;4992928;28;20021;-58
2024/02/21 08:46:21;;;;;;;46.53;19.80;;;;;;;11.93;100.00;98449.34;4994261;28;20092;-58
2024/02/21 08:48:47;;;;;;;52.78;14.05;;;;;;;11.97;100.00;98451.97;4994552;28;20029;-58
2024/02/21 08:51:13;;;;;;;77.97;15.35;;;;;;;12.30;100.00;98445.81;4991173;28;20034;-62
2024/02/21 08:53:38;;;;;;;56.05;27.00;;;;;;;12.69;100.00;98450.91;4992543;28;20034;-60
2024/02/21 08:56:04;;;;;;;70.53;17.15;;;;;;;12.46;100.00;98450.13;4991829;28;20037;-61
2024/02/21 08:58:30;;;;;;;48.42;21.48;;;;;;;13.22;100.00;98441.00;4993936;28;20473;-59
2024/02/21 09:00:55;;;;;;;46.42;11.10;;;;;;;13.12;100.00;98437.63;4992153;28;20044;-59
2024/02/21 09:03:20;;;;;;;47.45;10.43;;;;;;;13.60;100.00;98431.19;4993391;28;20343;-60
2024/02/21 09:05:46;;;;;;;46.50;11.30;;;;;;;13.07;100.00;98435.91;4992317;28;20034;-61
2024/02/21 09:08:12;;;;;;;60.38;10.75;;;;;;;13.25;100.00;98427.94;4993215;28;20080;-59
2024/02/21 09:10:37;;;;;;;50.00;9.93;;;;;;;13.84;100.00;98433.59;4992733;28;20034;-61
2024/02/21 09:13:03;;;;;;;64.55;10.75;;;;;;;14.77;100.00;98432.56;4993412;28;20406;-58
2024/02/21 09:15:29;;;;;;;35.70;8.13;;;;;;;16.77;100.00;98437.94;4993150;28;20034;-59
2024/02/21 09:17:54;;;;;;;45.10;9.43;;;;;;;18.30;100.00;98430.81;4993719;28;20034;-60
2024/02/21 09:20:19;;;;;;;48.40;10.40;;;;;;;19.31;100.00;98422.56;4991178;28;20417;-59
2024/02/21 09:22:45;;;;;;;32.38;7.97;;;;;;;19.85;97.94;98414.63;4991899;28;20885;-61
2024/02/21 09:25:11;;;;;;;65.97;10.02;;;;;;;19.81;100.00;98413.00;4994870;28;20117;-59
2024/02/21 09:27:38;;;;;;;30.00;8.82;;;;;;;19.58;84.75;98408.50;4997352;28;20439;-61
2024/02/21 09:30:05;;;;;;;46.45;11.30;;;;;;;18.80;92.66;98410.91;4995740;28;20036;-58
2024/02/21 09:32:30;;;;;;;32.35;9.07;;;;;;;19.95;100.00;98407.25;4995307;28;20072;-60
2024/02/21 09:34:56;;;;;;;36.25;7.57;;;;;;;20.14;100.00;98411.91;4995471;28;20029;-59
2024/02/21 09:37:21;;;;;;;31.58;7.63;;;;;;;20.73;96.85;98400.94;4996109;28;20096;-57
2024/02/21 09:39:47;;;;;;;54.63;8.70;;;;;;;20.82;100.00;98397.94;4994351;28;20522;-61
2024/02/21 09:42:18;;;;;;;54.88;11.38;;;;;;;19.51;94.08;98408.72;4992703;28;20355;-58
2024/02/21 09:44:45;;;;;;;40.72;7.70;;;;;;;18.64;100.00;98407.88;4993169;28;20030;-59
2024/02/21 09:47:16;;;;;;;72.32;17.77;;;;;;;19.96;100.00;98406.31;4993176;28;20042;-59
2024/02/21 09:49:43;;;;;;;65.50;10.93;;;;;;;20.41;93.08;98398.59;4994953;28;20036;-58
2024/02/21 09:52:10;;;;;;;63.97;9.73;;;;;;;19.88;66.02;98398.69;4990525;28;20510;-60
2024/02/21 09:54:35;;;;;;;40.72;7.53;;;;;;;19.92;82.15;98390.66;4994693;28;20587;-59
2024/02/21 09:57:02;;;;;;;33.38;7.57;;;;;;;16.50;72.21;98402.63;4992930;28;20563;-59
2024/02/21 09:59:30;;;;;;;40.33;8.25;;;;;;;17.33;92.47;98398.19;4994561;28;20017;-58
2024/02/21 10:01:55;;;;;;;50.92;19.65;;;;;;;14.45;93.33;98392.81;4993580;28;20069;-59
2024/02/21 10:04:21;;;;;;;45.40;16.42;;;;;;;15.13;91.96;98387.53;4994907;28;20026;-59
2024/02/21 10:06:47;;;;;;;50.70;11.00;;;;;;;16.82;77.72;98372.16;4995202;28;20064;-59
2024/02/21 10:09:28;;;;;;;62.67;10.73;;;;;;;15.82;85.91;98383.78;4994226;28;20030;-58
2024/02/21 10:11:55;;;;;;;59.20;10.80;;;;;;;15.85;83.80;98373.25;4994088;28;20026;-60
2024/02/21 10:14:20;;;;;;;50.85;10.35;;;;;;;15.79;84.17;98365.47;4993788;28;20030;-58
2024/02/21 10:16:48;;;;;;;56.35;10.88;;;;;;;14.60;97.05;98364.72;4994125;28;20037;-59
2024/02/21 10:19:19;;;;;;;95.75;14.32;;;;;;;14.61;96.41;98355.97;4992067;28;20080;-58
2024/02/21 10:22:08;;;;;;;42.20;9.23;;;;;;;15.23;93.82;98354.22;4992758;28;20045;-57
2024/02/21 10:24:35;;;;;;;61.67;11.05;;;;;;;15.52;91.42;98349.34;4993119;28;20030;-58
2024/02/21 10:27:13;;;;;;;56.33;19.27;;;;;;;14.65;91.17;98336.72;4992536;28;20449;-59
2024/02/21 10:29:39;;;;;;;103.22;18.05;;;;;;;14.81;95.08;98341.78;4991840;28;20034;-59
2024/02/21 10:32:10;;;;;;;50.30;10.30;;;;;;;16.33;100.00;98332.09;4997041;28;20049;-59
2024/02/21 10:34:37;;;;;;;32.67;7.22;;;;;;;17.16;100.00;98339.00;4998401;28;20025;-59
2024/02/21 10:37:07;;;;;;;48.17;7.97;;;;;;;16.94;91.19;98336.88;4994639;28;20053;-59
2024/02/21 10:39:33;;;;;;;52.90;12.75;;;;;;;16.37;100.00;98320.66;4999593;28;20026;-59
2024/02/21 10:42:07;;;;;;;49.22;7.85;;;;;;;16.34;90.62;98324.19;4998416;28;20464;-60
2024/02/21 10:44:36;;;;;;;31.08;10.10;;;;;;;16.62;91.08;98325.31;5000664;28;20405;-59
2024/02/21 10:47:07;;;;;;;171.93;152.57;;;;;;;16.04;79.58;98315.19;4998657;28;20496;-59
2024/02/21 10:49:35;;;;;;;60.60;17.95;;;;;;;16.51;73.67;98315.94;4999016;28;20497;-61
2024/02/21 10:52:13;;;;;;;59.00;28.60;;;;;;;16.38;77.72;98306.63;4999185;28;20549;-59
2024/02/21 10:54:56;;;;;;;54.33;9.52;;;;;;;15.92;82.81;98303.16;4997284;28;20029;-59
2024/02/21 10:57:22;;;;;;;24.27;6.25;;;;;;;16.50;79.88;98302.84;4996228;28;21352;-58
2024/02/21 10:59:48;;;;;;;54.80;10.32;;;;;;;16.62;88.48;98297.31;4998802;28;20196;-60
2024/02/21 11:02:14;;;;;;;51.20;8.88;;;;;;;16.30;81.77;98298.03;4996626;28;20038;-59
2024/02/21 11:04:41;;;;;;;28.95;6.95;;;;;;;16.31;81.91;98291.88;4999505;28;20033;-61
2024/02/21 11:07:07;;;;;;;58.90;8.35;;;;;;;16.11;86.24;98286.16;4996799;28;20065;-59
2024/02/21 11:09:33;;;;;;;90.85;63.55;;;;;;;15.19;95.53;98289.66;4999210;28;20032;-60
2024/02/21 11:12:03;;;;;;;46.50;8.98;;;;;;;14.73;88.33;98281.59;4997987;28;20034;-58